Latest Weather Observations for Dartmoor

IDV60801

Issued at 4:05 pm EDT Friday 31 October 2014 (issued every 30 minutes, with the page automatically refreshed every 10 minutes)

About weather observations | Map of weather stations | Latest weather observations for VIC | Other Formats
Station Details ID: 090194 Name: DARTMOOR Lat: -37.92 Lon: 141.26 Height: 51.0 m
Data from the previous 72 hours. | See also: Recent months at Dartmoor
Date/Time
EDT
Temp
°C
App
Temp
°C
Dew
Point
Rel
Hum
%
Delta-T
°C
Wind Press
QNH
hPa
Press
MSL
hPa
Rain
since 9 am
mm
Dir
 
Spd
km/h
Gust
km/h
Spd
kts
Gust
kts
31/04:00pm 32.2 25.6 4.1 17 14.7 NW 28 44 15 24 998.2 998.2 0.0
31/03:36pm 32.6 25.1 4.4 17 14.9 NNW 33 56 18 30 998.5 998.5 0.0
31/03:30pm 32.3 24.4 4.2 17 14.7 NNW 35 48 19 26 998.8 998.8 0.0
31/03:00pm 30.4 23.7 3.4 18 13.8 NNW 28 39 15 21 999.4 999.4 0.0
31/02:30pm 31.8 24.4 3.8 17 14.5 NNW 32 56 17 30 999.9 999.9 0.0
31/02:25pm 31.6 24.3 4.4 18 14.2 NNW 32 56 17 30 1000.0 1000.0 0.0
31/02:00pm 29.9 22.6 4.5 20 13.2 NNW 32 46 17 25 1000.5 1000.5 0.0
31/01:37pm 31.0 24.3 5.4 20 13.5 N 30 50 16 27 1000.8 1000.8 0.0
31/01:30pm 29.9 22.5 5.2 21 12.9 N 33 50 18 27 1000.9 1000.9 0.0
31/01:16pm 29.6 23.2 5.0 21 12.8 N 28 46 15 25 1001.0 1001.0 0.0
31/01:00pm 28.9 23.4 5.7 23 12.2 N 24 39 13 21 1001.4 1001.4 0.0
31/12:30pm 28.9 22.1 5.1 22 12.3 N 30 50 16 27 1002.0 1002.0 0.0
31/12:04pm 27.8 21.4 7.1 27 11.0 N 30 48 16 26 1002.5 1002.5 0.0
31/12:00pm 27.8 21.4 7.1 27 11.1 N 30 44 16 24 1002.6 1002.6 0.0
31/11:35am 26.8 21.0 7.8 30 10.2 N 28 48 15 26 1003.1 1003.1 0.0
31/11:30am 26.6 21.1 9.0 33 9.6 N 28 44 15 24 1003.3 1003.3 0.0
31/11:00am 25.3 20.2 9.2 36 8.8 N 26 37 14 20 1003.8 1003.8 0.0
31/10:30am 24.0 19.6 8.8 38 8.2 N 22 37 12 20 1004.6 1004.6 0.0
31/10:00am 21.9 17.5 8.8 43 7.0 N 22 32 12 17 1004.9 1004.9 0.0
31/09:30am 18.6 15.9 10.2 58 4.5 NNE 15 20 8 11 1005.2 1005.2 0.0
31/09:00am 16.9 15.4 12.0 73 2.7 NNE 11 17 6 9 1005.8 1005.8 0.2
31/08:30am 14.0 13.9 14.0 100 0.0 NE 7 9 4 5 1006.0 1006.0 0.2
31/08:00am 11.7 12.2 11.7 100 0.0 CALM 0 0 0 0 1006.4 1006.4 0.2
31/07:30am 11.0 11.3 11.0 100 0.0 CALM 0 0 0 0 1006.6 1006.6 0.2
31/07:00am 10.6 9.5 10.6 100 0.0 NNE 7 11 4 6 1006.9 1006.9 0.2
31/06:30am 10.0 10.1 10.0 100 0.0 CALM 0 0 0 0 1007.4 1007.5 0.2
31/06:00am 9.9 9.9 9.9 100 0.0 NE 0 0 0 0 1007.7 1007.8 0.2
31/05:30am 9.8 9.0 9.8 100 0.0 NE 4 6 2 3 1007.8 1007.9 0.2
31/05:00am 9.6 8.8 9.6 100 0.0 ENE 4 6 2 3 1008.3 1008.3 0.2
31/04:30am 9.1 7.8 9.1 100 0.0 ENE 6 9 3 5 1008.9 1008.9 0.2
31/04:00am 8.8 7.2 8.8 100 0.0 ENE 7 11 4 6 1009.2 1009.2 0.2
31/03:30am 7.9 7.0 7.9 100 0.0 E 2 4 1 2 1010.0 1010.0 0.2
31/03:00am 7.8 6.0 7.8 100 0.0 NE 7 9 4 5 1010.2 1010.2 0.2
31/02:30am 7.5 6.2 7.5 100 0.0 NE 4 9 2 5 1010.7 1010.7 0.2
31/02:00am 7.3 6.7 7.3 100 0.0 CALM 0 0 0 0 1011.5 1011.5 0.2
31/01:30am 7.5 6.9 7.5 100 0.0 CALM 0 0 0 0 1012.2 1012.2 0.2
31/01:00am 7.7 7.2 7.7 100 0.0 CALM 0 0 0 0 1012.5 1012.5 0.2
31/12:30am 7.7 7.2 7.7 100 0.0 CALM 0 0 0 0 1013.1 1013.1 0.2
31/12:00am 8.3 7.9 8.3 100 0.0 ENE 0 0 0 0 1013.0 1013.0 0.2
 
Date/Time
EDT
Temp
°C
App
Temp
°C
Dew
Point
Rel
Hum
%
Delta-T
°C
Wind Press
QNH
hPa
Press
MSL
hPa
Rain
since 9 am
mm
Dir
 
Spd
km/h
Gust
km/h
Spd
kts
Gust
kts
30/11:30pm 9.0 8.8 9.0 100 0.0 CALM 0 0 0 0 1013.4 1013.4 0.2
30/11:00pm 9.1 8.9 9.1 100 0.0 CALM 0 0 0 0 1013.7 1013.7 0.2
30/10:30pm 9.9 9.9 9.9 100 0.0 CALM 0 0 0 0 1014.2 1014.2 0.2
30/10:00pm 10.7 10.8 10.2 97 0.3 CALM 0 0 0 0 1014.3 1014.3 0.2
30/09:30pm 11.2 11.3 10.3 94 0.5 CALM 0 0 0 0 1014.1 1014.1 0.2
30/09:00pm 11.5 10.8 9.9 90 0.8 S 4 4 2 2 1013.8 1013.8 0.2
30/08:30pm 12.4 11.1 9.8 84 1.3 SSW 7 11 4 6 1013.8 1013.8 0.2
30/08:00pm 13.7 12.0 9.7 77 2.1 SSW 9 15 5 8 1013.5 1013.5 0.2
30/07:30pm 15.3 13.0 10.3 72 2.6 SSW 13 19 7 10 1013.2 1013.2 0.2
30/07:00pm 16.6 14.3 10.5 67 3.2 SSW 13 19 7 10 1013.0 1013.0 0.2
30/06:30pm 17.2 14.2 10.6 65 3.5 SSW 17 20 9 11 1012.9 1012.9 0.2
30/06:00pm 18.0 15.0 10.6 62 4.0 SW 17 20 9 11 1013.0 1013.0 0.2
30/05:30pm 18.3 14.9 10.7 61 4.1 SSW 19 24 10 13 1013.2 1013.2 0.2
30/05:00pm 18.9 16.0 11.0 60 4.3 SSW 17 20 9 11 1013.3 1013.3 0.2
30/04:30pm 19.9 17.6 10.3 54 5.2 W 13 20 7 11 1013.4 1013.4 0.2
30/04:00pm 20.4 17.2 9.9 51 5.6 WNW 17 22 9 12 1013.6 1013.6 0.2
30/03:30pm 20.2 16.6 10.0 52 5.5 NW 19 24 10 13 1013.9 1013.9 0.2
30/03:00pm 18.8 16.7 9.8 56 4.8 W 11 17 6 9 1014.2 1014.2 0.2
30/02:30pm 19.4 16.1 9.6 53 5.2 WNW 17 24 9 13 1014.5 1014.5 0.2
30/02:00pm 18.0 16.0 10.1 60 4.2 W 11 17 6 9 1014.8 1014.8 0.2
30/01:30pm 17.7 14.3 9.1 57 4.5 WNW 17 28 9 15 1014.9 1014.9 0.2
30/01:00pm 18.0 16.1 10.6 62 4.0 WNW 11 19 6 10 1015.0 1015.0 0.0
30/12:30pm 17.3 15.0 10.4 64 3.7 WNW 13 17 7 9 1015.4 1015.4 0.0
30/12:00pm 15.7 13.5 10.7 72 2.7 WNW 13 22 7 12 1015.8 1015.8 0.0
30/11:30am 15.6 13.7 10.6 72 2.7 WNW 11 19 6 10 1015.9 1015.9 0.0
30/11:00am 15.8 12.8 10.8 72 2.7 W 17 24 9 13 1016.0 1016.0 0.0
30/10:30am 15.1 12.4 11.7 80 1.8 W 17 24 9 13 1016.1 1016.1 0.0
30/10:00am 14.7 14.5 14.7 100 0.0 W 9 15 5 8 1016.1 1016.1 0.0
30/09:30am 13.4 13.1 13.4 100 0.0 W 7 13 4 7 1016.3 1016.3 0.0
30/09:00am 12.8 10.8 12.8 100 0.0 WNW 15 26 8 14 1016.3 1016.3 0.0
30/08:30am 13.1 11.2 13.1 100 0.0 NW 15 22 8 12 1016.1 1016.1 0.0
30/08:00am 12.2 11.6 12.2 100 0.0 NNW 7 9 4 5 1015.8 1015.8 0.0
30/07:30am 11.6 10.8 11.6 100 0.0 NNW 7 11 4 6 1015.2 1015.2 0.0
30/07:00am 11.2 10.4 11.2 100 0.0 NNW 6 9 3 5 1015.2 1015.2 0.0
30/06:30am 11.0 10.0 11.0 100 0.0 NW 7 9 4 5 1015.2 1015.2 0.0
30/06:00am 11.0 10.2 11.0 100 0.0 NNW 6 9 3 5 1014.6 1014.6 0.0
30/05:30am 10.9 10.4 10.9 100 0.0 NNW 4 9 2 5 1014.8 1014.8 0.0
30/05:00am 10.9 10.4 10.9 100 0.0 NNW 4 7 2 4 1014.8 1014.8 0.0
30/04:30am 10.8 9.7 10.8 100 0.0 NNW 7 9 4 5 1014.5 1014.5 0.0
30/04:00am 10.6 9.5 10.6 100 0.0 NNW 7 11 4 6 1015.3 1015.3 0.0
30/03:30am 10.4 9.4 10.4 100 0.0 NNW 6 7 3 4 1015.2 1015.2 0.0
30/03:00am 10.3 9.3 10.3 100 0.0 NW 6 7 3 4 1015.3 1015.3 0.0
30/02:30am 10.3 9.1 10.3 100 0.0 NW 7 9 4 5 1015.1 1015.1 0.0
30/02:00am 9.9 8.8 9.9 100 0.0 NW 6 7 3 4 1015.2 1015.2 0.0
30/01:30am 10.3 9.1 10.3 100 0.0 NW 7 7 4 4 1015.6 1015.6 0.0
30/01:00am 10.5 9.6 10.5 100 0.0 NW 6 7 3 4 1015.9 1015.9 0.0
30/12:30am 10.5 9.0 10.5 100 0.0 NW 9 9 5 5 1016.2 1016.2 0.0
30/12:00am 10.6 10.8 10.6 100 0.0 CALM 0 0 0 0 1016.5 1016.5 0.0
 
Date/Time
EDT
Temp
°C
App
Temp
°C
Dew
Point
Rel
Hum
%
Delta-T
°C
Wind Press
QNH
hPa
Press
MSL
hPa
Rain
since 9 am
mm
Dir
 
Spd
km/h
Gust
km/h
Spd
kts
Gust
kts
29/11:30pm 11.3 10.6 11.3 100 0.0 NW 6 7 3 4 1016.6 1016.6 0.0
29/11:00pm 12.4 11.8 11.8 96 0.3 WNW 6 7 3 4 1016.9 1016.9 0.0
29/10:30pm 13.1 12.6 12.2 94 0.5 WNW 6 9 3 5 1017.1 1017.1 0.0
29/10:00pm 13.2 12.6 12.3 94 0.5 WSW 7 13 4 7 1017.2 1017.2 0.0
29/09:30pm 13.6 12.9 12.0 90 0.9 WSW 7 11 4 6 1017.2 1017.2 0.0
29/09:00pm 14.0 12.5 12.0 88 1.1 WNW 11 17 6 9 1017.1 1017.1 0.0
29/08:30pm 14.3 12.8 11.8 85 1.3 W 11 20 6 11 1016.9 1016.9 0.0
29/08:00pm 14.8 13.2 11.4 80 1.8 W 11 19 6 10 1017.1 1017.1 0.0
29/07:30pm 15.1 13.3 10.9 76 2.2 W 11 17 6 9 1016.8 1016.8 0.0
29/07:00pm 15.5 13.0 10.9 74 2.4 W 15 22 8 12 1016.5 1016.5 0.0
29/06:30pm 16.0 12.6 10.7 71 2.8 W 19 26 10 14 1016.4 1016.4 0.0
29/06:00pm 17.0 13.6 11.1 68 3.2 W 20 35 11 19 1016.5 1016.5 0.0
29/05:30pm 18.3 14.4 10.7 61 4.1 W 22 35 12 19 1016.1 1016.1 0.0
29/05:00pm 19.4 15.9 10.9 58 4.6 W 20 33 11 18 1015.9 1015.9 0.0
29/04:30pm 18.9 15.5 10.7 59 4.4 W 19 28 10 15 1015.9 1015.9 0.0
29/04:00pm 19.3 15.8 10.8 58 4.6 W 20 28 11 15 1015.8 1015.8 0.0
29/03:30pm 19.3 16.1 10.0 55 5.0 NNW 17 22 9 12 1016.1 1016.1 0.0
29/03:00pm 20.3 16.9 10.7 54 5.2 WNW 19 28 10 15 1016.4 1016.4 0.0
29/02:30pm 18.3 14.2 10.2 59 4.3 NW 22 33 12 18 1016.7 1016.7 0.0
29/02:00pm 18.4 14.6 11.0 62 4.0 NW 22 32 12 17 1016.9 1016.9 0.0
29/01:30pm 17.3 14.0 10.9 66 3.4 NW 19 26 10 14 1017.3 1017.3 0.0
29/01:00pm 16.8 12.9 10.9 68 3.2 NNW 22 33 12 18 1017.5 1017.5 0.0
29/12:30pm 15.9 13.1 11.5 75 2.4 NNW 17 26 9 14 1017.7 1017.7 0.0
29/12:00pm 15.6 12.4 11.4 76 2.3 NNW 19 30 10 16 1018.1 1018.1 0.0
29/11:30am 15.8 13.0 11.2 74 2.5 NNW 17 26 9 14 1018.3 1018.3 0.0
29/11:00am 14.9 11.7 11.3 79 1.9 NNW 19 28 10 15 1018.5 1018.5 0.0
29/10:30am 14.8 11.8 10.6 76 2.2 NW 17 24 9 13 1018.5 1018.5 0.0
29/10:00am 14.7 12.6 11.3 80 1.8 NNW 13 17 7 9 1018.5 1018.5 0.0
29/09:30am 13.9 12.6 12.6 92 0.7 NNW 11 17 6 9 1018.6 1018.6 0.0
29/09:00am 13.7 13.1 13.4 98 0.2 NNW 9 11 5 6 1018.6 1018.6 0.0
29/08:30am 12.6 10.9 12.6 100 0.0 NW 13 22 7 12 1018.6 1018.6 0.0
29/08:00am 12.2 11.2 12.2 100 0.0 NW 9 15 5 8 1018.5 1018.5 0.0
29/07:30am 11.6 10.8 11.6 100 0.0 NW 7 13 4 7 1018.4 1018.4 0.0
29/07:00am 11.2 10.3 11.2 100 0.0 NW 7 9 4 5 1018.4 1018.4 0.0
29/06:30am 11.1 10.3 11.1 100 0.0 NNW 6 7 3 4 1018.2 1018.2 0.0
29/06:00am 11.2 10.3 11.2 100 0.0 NNW 7 11 4 6 1017.9 1017.9 0.0
29/05:30am 11.2 9.9 11.2 100 0.0 NNW 9 15 5 8 1017.8 1017.8 0.0
29/05:00am 11.2 10.3 11.2 100 0.0 NW 7 11 4 6 1017.6 1017.6 0.0
29/04:30am 11.2 10.3 11.2 100 0.0 NNW 7 11 4 6 1017.5 1017.5 0.0
29/04:00am 11.1 9.8 11.1 100 0.0 NNW 9 11 5 6 1017.6 1017.6 0.0
29/03:30am 10.7 9.8 10.7 100 0.0 NNW 6 7 3 4 1017.7 1017.7 0.0
29/03:00am 10.3 9.3 10.3 100 0.0 NW 6 7 3 4 1017.8 1017.8 0.0
29/02:30am 10.7 10.2 10.7 100 0.0 NW 4 6 2 3 1017.8 1017.8 0.0
29/02:00am 10.7 9.8 10.7 100 0.0 NW 6 7 3 4 1018.0 1018.0 0.0
29/01:30am 10.7 9.6 10.7 100 0.0 NW 7 7 4 4 1018.3 1018.3 0.0
29/01:00am 10.6 9.7 10.6 100 0.0 WNW 6 7 3 4 1018.4 1018.4 0.0
29/12:30am 10.8 9.9 10.8 100 0.0 NW 6 7 3 4 1018.5 1018.5 0.0
29/12:00am 10.9 10.1 10.9 100 0.0 NNW 6 7 3 4 1018.5 1018.5 0.0
 
Date/Time
EDT
Temp
°C
App
Temp
°C
Dew
Point
Rel
Hum
%
Delta-T
°C
Wind Press
QNH
hPa
Press
MSL
hPa
Rain
since 9 am
mm
Dir
 
Spd
km/h
Gust
km/h
Spd
kts
Gust
kts
28/11:30pm 10.4 9.2 10.4 100 0.0 NW 7 7 4 4 1018.5 1018.5 0.0
28/11:00pm 10.9 10.1 10.9 100 0.0 NW 6 7 3 4 1018.6 1018.6 0.0
28/10:30pm 11.7 11.1 11.7 100 0.0 WSW 6 9 3 5 1018.6 1018.6 0.0
28/10:00pm 11.5 11.2 11.3 99 0.1 SW 4 6 2 3 1018.6 1018.6 0.0
28/09:30pm 12.0 10.2 10.7 92 0.7 SW 11 17 6 9 1018.3 1018.3 0.0
28/09:00pm 12.8 11.6 9.4 80 1.7 WNW 6 9 3 5 1018.0 1018.0 0.0
28/08:30pm 13.1 11.2 9.2 77 2.0 W 9 13 5 7 1017.9 1017.9 0.0
28/08:00pm 13.3 10.5 8.6 73 2.4 WSW 13 22 7 12 1017.7 1017.7 0.0
28/07:30pm 13.8 10.5 8.2 69 2.8 W 15 28 8 15 1017.3 1017.3 0.0
28/07:00pm 14.3 10.2 7.8 65 3.2 W 19 28 10 15 1016.9 1016.9 0.0
28/06:30pm 14.6 11.4 8.5 67 3.1 WSW 15 26 8 14 1016.7 1016.7 0.0
28/06:00pm 14.6 10.0 8.1 65 3.3 WSW 22 35 12 19 1016.6 1016.6 0.0
28/05:30pm 14.6 10.6 8.1 65 3.3 WSW 19 30 10 16 1016.3 1016.3 0.0
28/05:00pm 14.5 10.3 8.2 66 3.2 W 20 35 11 19 1016.2 1016.2 0.0
28/04:30pm 15.4 11.9 8.6 64 3.5 WSW 17 28 9 15 1016.1 1016.1 0.0

Other Formats:

Comma delimited format used in spreadsheet applications
http://www.bom.gov.au/fwo/IDV60801/IDV60801.95822.axf

JavaScript Object Notation format (JSON) in row-major order
http://www.bom.gov.au/fwo/IDV60801/IDV60801.95822.json